Time;durP1;ratioP1;P1;durP2;ratioP2;P2;SDS_P1;SDS_P2;PMS_P1;PMS_P2;Temp;Humidity;BMP_temperature;BMP_pressure;BME280_temperature;BME280_humidity;BME280_pressure;Samples;Min_cycle;Max_cycle;Signal;HPM_P1;HPM_P2
2023/03/05 00:02:30;;;;;;;7.60;4.17;;;4.10;99.90;;;4.86;100.00;98521.75;5045030;28;20464;-75
2023/03/05 00:04:59;;;;;;;8.23;4.20;;;4.10;99.90;;;4.86;100.00;98526.94;5044069;28;20469;-75
2023/03/05 00:07:30;;;;;;;9.40;4.43;;;4.10;99.90;;;4.80;100.00;98522.28;5043565;28;20472;-74
2023/03/05 00:10:00;;;;;;;7.53;4.70;;;4.00;99.90;;;4.78;100.00;98525.03;5043121;28;20468;-74
2023/03/05 00:12:31;;;;;;;5.60;4.53;;;4.00;99.90;;;4.78;100.00;98526.78;5041870;28;20985;-75
2023/03/05 00:15:01;;;;;;;6.90;3.80;;;4.00;99.90;;;4.78;100.00;98524.22;5044141;28;20480;-75
2023/03/05 00:17:31;;;;;;;8.37;4.60;;;4.00;99.90;;;4.79;100.00;98515.50;5047927;28;20474;-74
2023/03/05 00:20:00;;;;;;;5.63;4.03;;;4.00;99.90;;;4.70;100.00;98522.31;5047334;28;20521;-75
2023/03/05 00:22:30;;;;;;;8.67;4.90;;;3.90;99.90;;;4.70;100.00;98519.72;5048764;28;20545;-74
2023/03/05 00:25:00;;;;;;;8.00;3.93;;;3.90;99.90;;;4.70;100.00;98516.31;5047371;28;20459;-75
2023/03/05 00:27:32;;;;;;;6.37;3.97;;;3.90;99.90;;;4.69;100.00;98519.84;5047350;28;20875;-75
2023/03/05 00:30:01;;;;;;;4.93;3.83;;;3.80;99.90;;;4.62;100.00;98511.00;5046981;28;20561;-75
2023/03/05 00:32:32;;;;;;;4.30;3.20;;;3.80;99.90;;;4.61;100.00;98511.97;5046193;28;20466;-73
2023/03/05 00:35:02;;;;;;;5.43;3.50;;;3.70;99.90;;;4.57;100.00;98506.25;5044826;28;20589;-74
2023/03/05 00:37:32;;;;;;;6.03;3.50;;;3.70;99.90;;;4.61;100.00;98507.59;5048455;28;20499;-74
2023/03/05 00:40:01;;;;;;;6.17;4.00;;;3.80;99.90;;;4.62;100.00;98508.44;5047606;28;20899;-75
2023/03/05 00:42:37;;;;;;;8.67;4.30;;;3.80;99.90;;;4.59;100.00;98509.50;5047064;28;20463;-74
2023/03/05 00:45:09;;;;;;;6.80;4.30;;;3.70;99.90;;;4.58;100.00;98506.09;5046752;28;20464;-75
2023/03/05 00:47:39;;;;;;;7.20;4.37;;;3.70;99.90;;;4.56;100.00;98500.25;5046693;28;20470;-75
2023/03/05 00:50:10;;;;;;;5.10;4.20;;;3.80;99.90;;;4.56;100.00;98499.41;5047749;28;20494;-75
2023/03/05 00:52:40;;;;;;;6.93;4.63;;;3.80;99.90;;;4.56;100.00;98491.66;5046534;28;20541;-74
2023/03/05 00:55:10;;;;;;;4.37;3.40;;;3.80;99.90;;;4.58;100.00;98494.94;5045231;28;20857;-75
2023/03/05 00:57:41;;;;;;;6.50;4.30;;;3.70;99.90;;;4.58;100.00;98489.75;5046581;28;20469;-75
2023/03/05 01:00:14;;;;;;;7.13;4.30;;;3.80;99.90;;;4.57;100.00;98490.69;5047587;28;20486;-74
2023/03/05 01:02:44;;;;;;;8.60;4.47;;;3.80;99.90;;;4.53;100.00;98492.75;5046378;28;20460;-75
2023/03/05 01:05:14;;;;;;;7.10;4.40;;;3.70;99.90;;;4.50;100.00;98498.22;5047047;28;20557;-74
2023/03/05 01:07:44;;;;;;;6.00;3.57;;;3.70;99.90;;;4.47;100.00;98493.31;5046555;28;20462;-75
2023/03/05 01:10:14;;;;;;;7.00;4.20;;;3.70;99.90;;;4.48;100.00;98488.91;5046974;28;20519;-74
2023/03/05 01:12:47;;;;;;;9.70;4.73;;;3.60;99.90;;;4.51;100.00;98486.09;5047507;28;20467;-73
2023/03/05 01:15:17;;;;;;;7.00;4.43;;;3.70;99.90;;;4.50;100.00;98482.69;5046380;28;20454;-74
2023/03/05 01:17:46;;;;;;;6.70;4.50;;;3.70;99.90;;;4.48;100.00;98489.75;5047482;28;20545;-75
2023/03/05 01:20:18;;;;;;;9.40;4.83;;;3.60;99.90;;;4.45;100.00;98477.06;5046822;28;20849;-74
2023/03/05 01:22:48;;;;;;;8.50;4.33;;;3.60;99.90;;;4.49;100.00;98483.63;5045278;28;20474;-74
2023/03/05 01:25:18;;;;;;;12.80;5.40;;;3.70;99.90;;;4.51;100.00;98476.53;5045337;28;20552;-75
2023/03/05 01:27:49;;;;;;;8.53;4.50;;;3.70;99.90;;;4.54;100.00;98476.28;5045245;28;20493;-74
2023/03/05 01:30:20;;;;;;;9.23;4.33;;;3.80;99.90;;;4.56;100.00;98474.34;5045684;28;20531;-75
2023/03/05 01:32:50;;;;;;;6.63;4.47;;;3.90;99.90;;;4.54;100.00;98473.69;5044221;28;20462;-74
2023/03/05 01:35:23;;;;;;;9.77;4.50;;;3.80;99.90;;;4.54;100.00;98465.09;5042792;28;21030;-74
2023/03/05 01:37:53;;;;;;;8.73;4.67;;;3.80;99.90;;;4.53;100.00;98461.69;5044306;28;20940;-75
2023/03/05 01:40:28;;;;;;;10.90;5.10;;;3.80;99.90;;;4.53;100.00;98458.28;5044322;28;20458;-74
2023/03/05 01:43:01;;;;;;;6.83;4.60;;;3.80;99.90;;;4.45;100.00;98458.94;5041507;28;20963;-75
2023/03/05 01:45:32;;;;;;;7.57;4.80;;;3.70;99.90;;;4.47;100.00;98453.66;5044389;28;20969;-75
2023/03/05 01:48:02;;;;;;;9.07;4.93;;;3.70;99.90;;;4.49;100.00;98444.78;5046262;28;20467;-75
2023/03/05 01:50:32;;;;;;;8.30;4.97;;;3.70;99.90;;;4.49;100.00;98442.19;5046086;28;20502;-75
2023/03/05 01:53:07;;;;;;;8.23;4.83;;;3.70;99.90;;;4.42;100.00;98441.13;5043303;28;20470;-74
2023/03/05 01:55:36;;;;;;;6.13;4.63;;;3.70;99.90;;;4.45;100.00;98443.41;5042331;28;20581;-75
2023/03/05 01:58:13;;;;;;;7.60;5.27;;;3.70;99.90;;;4.47;100.00;98433.75;5041869;28;20481;-75
2023/03/05 02:00:48;;;;;;;7.10;4.40;;;3.70;99.90;;;4.42;100.00;98433.34;5044700;28;20492;-75
2023/03/05 02:03:18;;;;;;;10.83;5.70;;;3.70;99.90;;;4.44;100.00;98433.22;5041462;28;20486;-74
2023/03/05 02:05:47;;;;;;;8.00;4.87;;;3.60;99.90;;;4.43;100.00;98429.81;5042537;28;20471;-74
2023/03/05 02:08:20;;;;;;;13.67;5.20;;;3.60;99.90;;;4.43;100.00;98432.41;5042042;28;21205;-75
2023/03/05 02:10:55;;;;;;;6.30;4.33;;;3.60;99.90;;;4.46;100.00;98428.72;5043978;28;20585;-74
2023/03/05 02:13:31;;;;;;;6.87;4.60;;;3.70;99.90;;;4.47;100.00;98418.22;5042790;28;20478;-75
2023/03/05 02:16:02;;;;;;;8.33;4.20;;;3.80;99.90;;;4.45;100.00;98419.28;5042817;28;20841;-74
2023/03/05 02:18:32;;;;;;;8.17;5.20;;;3.80;99.90;;;4.45;100.00;98414.94;5041961;28;20586;-74
2023/03/05 02:21:06;;;;;;;4.77;3.70;;;3.80;99.90;;;4.43;100.00;98411.69;5045129;28;20486;-75
2023/03/05 02:23:39;;;;;;;14.30;5.73;;;3.80;99.90;;;4.43;100.00;98409.09;5040978;28;20520;-75
2023/03/05 02:26:10;;;;;;;10.63;4.57;;;3.70;99.90;;;4.42;100.00;98404.88;5042771;28;20464;-75
2023/03/05 02:28:44;;;;;;;8.57;4.37;;;3.70;99.90;;;4.43;100.00;98409.09;5043967;28;20470;-75
2023/03/05 02:31:17;;;;;;;8.27;5.00;;;3.80;99.90;;;4.43;100.00;98408.28;5043139;28;20466;-75
2023/03/05 02:33:46;;;;;;;5.70;4.43;;;3.70;99.90;;;4.44;100.00;98407.34;5043357;28;20473;-75
2023/03/05 02:36:17;;;;;;;10.40;4.50;;;3.70;99.90;;;4.40;100.00;98406.78;5041957;28;20485;-74
2023/03/05 02:38:47;;;;;;;6.07;4.13;;;3.70;99.90;;;4.35;100.00;98403.78;5042214;28;20595;-75
2023/03/05 02:41:17;;;;;;;6.00;4.07;;;3.60;99.90;;;4.36;100.00;98400.25;5041625;28;20895;-75
2023/03/05 02:43:47;;;;;;;10.40;4.47;;;3.50;99.90;;;4.38;100.00;98398.34;5042253;28;21046;-75
2023/03/05 02:46:16;;;;;;;9.10;4.30;;;3.70;99.90;;;4.38;100.00;98392.34;5040663;28;20483;-75
2023/03/05 02:48:46;;;;;;;6.80;3.80;;;3.60;99.90;;;4.39;100.00;98394.78;5043184;28;20568;-75
2023/03/05 02:51:17;;;;;;;9.00;3.70;;;3.70;99.90;;;4.36;100.00;98394.25;5043237;28;21088;-74
2023/03/05 02:53:45;;;;;;;8.37;3.50;;;3.70;99.90;;;4.41;100.00;98397.22;5043151;28;21171;-74
2023/03/05 02:56:15;;;;;;;10.67;3.90;;;3.70;99.90;;;4.42;100.00;98389.34;5041974;28;20509;-74
2023/03/05 02:58:44;;;;;;;6.60;4.23;;;3.80;99.90;;;4.42;100.00;98385.94;5043566;28;20472;-75
2023/03/05 03:01:14;;;;;;;5.47;3.30;;;3.70;99.90;;;4.40;100.00;98388.69;5041664;28;20464;-74
2023/03/05 03:03:44;;;;;;;9.43;3.83;;;3.70;99.90;;;4.41;100.00;98377.34;5040760;28;20515;-75
2023/03/05 03:06:14;;;;;;;11.10;4.30;;;3.80;99.90;;;4.45;100.00;98377.88;5044476;28;20463;-75
2023/03/05 03:08:45;;;;;;;7.80;3.60;;;3.80;99.90;;;4.43;100.00;98375.44;5042047;28;20477;-74
2023/03/05 03:11:14;;;;;;;6.20;2.93;;;3.70;99.90;;;4.41;100.00;98377.34;5042988;28;20482;-75
2023/03/05 03:13:44;;;;;;;7.13;3.37;;;3.70;99.90;;;4.44;100.00;98363.31;5043329;28;20553;-75
2023/03/05 03:16:15;;;;;;;5.60;3.30;;;3.70;99.90;;;4.43;100.00;98362.50;5043204;28;20471;-75
2023/03/05 03:18:46;;;;;;;5.37;3.87;;;3.80;99.90;;;4.39;100.00;98353.38;5045092;28;20965;-75
2023/03/05 03:21:23;;;;;;;5.80;4.07;;;3.80;99.90;;;4.44;100.00;98351.16;5045500;28;21112;-75
2023/03/05 03:23:53;;;;;;;7.63;4.13;;;3.90;99.90;;;4.42;100.00;98350.50;5044404;28;21215;-75
2023/03/05 03:26:22;;;;;;;7.90;3.60;;;3.80;99.90;;;4.44;100.00;98350.38;5043879;28;20470;-75
2023/03/05 03:28:51;;;;;;;7.13;3.60;;;3.80;99.90;;;4.44;100.00;98348.56;5045180;28;20474;-75
2023/03/05 03:31:21;;;;;;;6.50;4.10;;;3.80;99.90;;;4.44;100.00;98343.41;5043245;28;20501;-75
2023/03/05 03:33:51;;;;;;;9.17;4.37;;;3.90;99.90;;;4.43;100.00;98343.56;5043620;28;20476;-74
2023/03/05 03:36:21;;;;;;;12.23;4.10;;;3.90;99.90;;;4.37;100.00;98339.75;5045158;28;20534;-75
2023/03/05 03:38:52;;;;;;;8.97;4.03;;;3.80;99.90;;;4.37;100.00;98342.34;5043602;28;20522;-75
2023/03/05 03:41:22;;;;;;;7.23;3.83;;;3.80;99.90;;;4.39;100.00;98344.78;5043925;28;20569;-75
2023/03/05 03:43:52;;;;;;;6.00;4.10;;;3.80;99.90;;;4.37;100.00;98339.75;5043947;28;20497;-74
2023/03/05 03:46:22;;;;;;;5.03;4.30;;;3.80;99.90;;;4.41;100.00;98333.34;5043937;28;20458;-75
2023/03/05 03:48:51;;;;;;;6.97;3.70;;;3.80;99.90;;;4.41;100.00;98335.91;5040990;28;20491;-75
2023/03/05 03:51:22;;;;;;;5.10;3.80;;;3.80;99.90;;;4.42;100.00;98329.78;5043583;28;20496;-74
2023/03/05 03:53:52;;;;;;;4.73;3.10;;;3.80;99.90;;;4.45;100.00;98329.50;5045393;28;20501;-75
2023/03/05 03:56:22;;;;;;;5.17;3.60;;;3.90;99.90;;;4.42;100.00;98331.56;5046869;28;20468;-76
2023/03/05 03:58:53;;;;;;;6.97;3.77;;;3.80;99.90;;;4.40;100.00;98330.91;5046528;28;20504;-75
2023/03/05 04:01:22;;;;;;;9.03;4.43;;;3.70;99.90;;;4.41;100.00;98330.75;5046645;28;20465;-75
2023/03/05 04:03:52;;;;;;;14.23;3.87;;;3.70;99.90;;;4.42;100.00;98327.22;5045782;28;20552;-76
2023/03/05 04:06:21;;;;;;;7.03;3.67;;;3.80;99.90;;;4.42;100.00;98321.22;5045809;28;20478;-75
2023/03/05 04:08:50;;;;;;;5.10;3.77;;;3.90;99.90;;;4.41;100.00;98320.38;5045510;28;20498;-74
2023/03/05 04:11:22;;;;;;;7.70;3.87;;;3.90;99.90;;;4.38;100.00;98317.25;5044429;28;20941;-74
2023/03/05 04:13:51;;;;;;;9.50;4.00;;;3.80;99.90;;;4.38;100.00;98315.50;5045131;28;21045;-74
2023/03/05 04:16:20;;;;;;;6.80;3.80;;;3.80;99.90;;;4.40;100.00;98315.38;5048557;28;20570;-74
2023/03/05 04:18:51;;;;;;;5.53;4.00;;;3.80;99.90;;;4.40;100.00;98316.19;5048461;28;20462;-74
2023/03/05 04:21:20;;;;;;;4.73;3.30;;;3.80;99.90;;;4.42;100.00;98316.84;5046939;28;20977;-75
2023/03/05 04:23:49;;;;;;;13.90;4.20;;;3.90;99.90;;;4.36;100.00;98320.00;5044405;28;20514;-75
2023/03/05 04:26:18;;;;;;;7.87;3.73;;;3.80;99.90;;;4.39;100.00;98319.72;5046462;28;20538;-75
2023/03/05 04:28:49;;;;;;;5.17;3.13;;;3.90;99.90;;;4.39;100.00;98317.13;5045597;28;20497;-74
2023/03/05 04:31:19;;;;;;;8.90;4.30;;;3.80;99.90;;;4.38;100.00;98315.50;5044597;28;20524;-75
2023/03/05 04:33:49;;;;;;;6.33;3.60;;;3.70;99.90;;;4.36;100.00;98317.41;5046374;28;20492;-75
2023/03/05 04:36:19;;;;;;;4.83;3.27;;;3.70;99.90;;;4.41;100.00;98314.38;5047737;28;20539;-74
2023/03/05 04:38:49;;;;;;;12.20;4.03;;;3.80;99.90;;;4.39;100.00;98317.13;5045258;28;20476;-75
2023/03/05 04:41:19;;;;;;;6.73;3.90;;;3.70;99.90;;;4.41;100.00;98322.97;5043713;28;20458;-75
2023/03/05 04:43:50;;;;;;;7.30;4.10;;;3.70;99.90;;;4.38;100.00;98315.50;5044461;28;20476;-74
2023/03/05 04:46:21;;;;;;;5.70;3.33;;;3.70;99.90;;;4.40;100.00;98320.53;5045430;28;20554;-74
2023/03/05 04:48:52;;;;;;;5.00;3.10;;;3.80;99.90;;;4.40;100.00;98312.78;5043135;28;20835;-74
2023/03/05 04:51:22;;;;;;;8.03;3.50;;;3.80;99.90;;;4.38;100.00;98314.69;5043793;28;21047;-74
2023/03/05 04:53:51;;;;;;;7.97;3.73;;;3.70;99.90;;;4.36;100.00;98312.25;5045936;28;20472;-75
2023/03/05 04:56:20;;;;;;;5.23;3.20;;;3.80;99.90;;;4.36;100.00;98312.25;5046850;28;20464;-74
2023/03/05 04:58:52;;;;;;;4.90;3.40;;;3.80;99.90;;;4.35;100.00;98308.03;5047925;28;20472;-74
2023/03/05 05:01:21;;;;;;;10.43;4.30;;;3.80;99.90;;;4.33;100.00;98304.78;5044502;28;20466;-74
2023/03/05 05:03:52;;;;;;;8.37;4.83;;;3.80;99.90;;;4.32;100.00;98295.38;5042579;28;20458;-75
2023/03/05 05:06:23;;;;;;;11.73;5.20;;;3.90;99.90;;;4.29;100.00;98300.81;5044284;28;20462;-74
2023/03/05 05:08:52;;;;;;;13.07;3.97;;;3.80;99.90;;;4.32;100.00;98295.38;5042878;28;20528;-75
2023/03/05 05:11:22;;;;;;;4.83;3.33;;;3.80;99.90;;;4.32;100.00;98295.38;5045246;28;20497;-74
2023/03/05 05:13:53;;;;;;;9.13;4.17;;;3.80;99.90;;;4.32;100.00;98295.38;5042896;28;20468;-72
2023/03/05 05:16:23;;;;;;;5.73;3.60;;;3.80;99.90;;;4.27;100.00;98287.19;5045859;28;21056;-75
2023/03/05 05:18:52;;;;;;;9.80;3.53;;;3.70;99.90;;;4.28;100.00;98285.44;5046304;28;20457;-75
2023/03/05 05:21:22;;;;;;;5.30;3.50;;;3.70;99.90;;;4.27;100.00;98276.84;5046802;28;21014;-75
2023/03/05 05:23:52;;;;;;;7.60;3.43;;;3.70;99.90;;;4.29;100.00;98276.72;5047312;28;20467;-75
2023/03/05 05:26:22;;;;;;;8.63;4.00;;;3.60;99.90;;;4.30;100.00;98275.75;5047650;28;20465;-75
2023/03/05 05:28:54;;;;;;;7.77;3.97;;;3.60;99.90;;;4.29;100.00;98280.13;5046076;28;20497;-75
2023/03/05 05:31:23;;;;;;;16.13;8.70;;;3.60;99.90;;;4.27;100.00;98279.44;5044525;28;21259;-76
2023/03/05 05:33:53;;;;;;;10.33;5.17;;;3.60;99.90;;;4.30;100.00;98284.34;5041483;28;21027;-74
2023/03/05 05:36:22;;;;;;;10.57;4.80;;;3.70;99.90;;;4.28;100.00;98275.91;5046941;28;20474;-74
2023/03/05 05:38:52;;;;;;;9.67;3.63;;;3.60;99.90;;;4.28;100.00;98277.66;5045865;28;20890;-74
2023/03/05 05:41:21;;;;;;;10.73;3.60;;;3.60;99.90;;;4.27;100.00;98287.19;5046630;28;20484;-74
2023/03/05 05:43:51;;;;;;;8.00;3.90;;;3.60;99.90;;;4.28;100.00;98286.25;5047214;28;20464;-74
2023/03/05 05:46:21;;;;;;;8.07;4.20;;;3.60;99.90;;;4.28;100.00;98283.66;5046752;28;20469;-74
2023/03/05 05:48:50;;;;;;;8.50;3.87;;;3.60;99.90;;;4.31;100.00;98278.19;5046097;28;20548;-74
2023/03/05 05:51:22;;;;;;;5.20;3.57;;;3.70;99.90;;;4.27;100.00;98273.47;5045724;28;20572;-75
2023/03/05 05:53:52;;;;;;;9.47;4.23;;;3.60;99.90;;;4.28;100.00;98275.06;5040936;28;20474;-74
2023/03/05 05:56:22;;;;;;;10.70;3.90;;;3.70;99.90;;;4.22;100.00;98279.06;5043726;28;20494;-75
2023/03/05 05:58:54;;;;;;;7.53;4.00;;;3.60;99.90;;;4.23;100.00;98270.34;5044247;28;20523;-74
2023/03/05 06:01:26;;;;;;;6.60;3.80;;;3.50;99.90;;;4.25;100.00;98267.59;5043065;28;20555;-74
2023/03/05 06:03:57;;;;;;;6.00;3.47;;;3.50;99.90;;;4.25;100.00;98260.66;5043605;28;20512;-72
2023/03/05 06:06:28;;;;;;;9.23;4.03;;;3.60;99.90;;;4.26;100.00;98267.47;5037394;28;20497;-75
2023/03/05 06:08:58;;;;;;;8.23;3.27;;;3.70;99.90;;;4.26;100.00;98270.06;5044499;28;20470;-75
2023/03/05 06:11:28;;;;;;;7.43;3.57;;;3.60;99.90;;;4.28;100.00;98264.72;5043463;28;20907;-75
2023/03/05 06:14:01;;;;;;;7.53;3.60;;;3.70;99.90;;;4.29;100.00;98266.34;5042271;28;20457;-75
2023/03/05 06:16:33;;;;;;;7.73;3.30;;;3.70;99.90;;;4.25;100.00;98267.59;5041939;28;20858;-75
2023/03/05 06:19:04;;;;;;;4.70;3.33;;;3.60;99.90;;;4.25;100.00;98268.41;5039946;28;20496;-75
2023/03/05 06:21:34;;;;;;;4.43;3.23;;;3.60;99.90;;;4.24;100.00;98276.31;5040784;28;20457;-75
2023/03/05 06:24:06;;;;;;;5.80;2.83;;;3.50;99.90;;;4.22;100.00;98278.22;5040744;28;20466;-74
2023/03/05 06:26:35;;;;;;;10.77;3.50;;;3.50;99.90;;;4.23;100.00;98274.69;5042559;28;20556;-75
2023/03/05 06:29:06;;;;;;;8.63;3.63;;;3.50;99.90;;;4.21;100.00;98274.81;5045208;28;20836;-74
2023/03/05 06:31:37;;;;;;;4.67;3.07;;;3.50;99.90;;;4.20;100.00;98280.16;5046429;28;20483;-75
2023/03/05 06:34:06;;;;;;;5.20;3.07;;;3.40;99.90;;;4.15;100.00;98279.75;5045447;28;20458;-75
2023/03/05 06:36:39;;;;;;;6.20;3.20;;;3.40;99.90;;;4.13;100.00;98276.50;5047244;28;20488;-75
2023/03/05 06:39:09;;;;;;;6.40;3.90;;;3.30;99.90;;;4.09;100.00;98278.56;5046281;28;20460;-75
2023/03/05 06:41:38;;;;;;;13.73;3.93;;;3.30;99.90;;;4.11;100.00;98276.63;5040388;28;21098;-75
2023/03/05 06:44:09;;;;;;;12.73;3.43;;;3.40;99.90;;;4.16;100.00;98266.69;5040740;28;21476;-75
2023/03/05 06:46:42;;;;;;;5.73;2.60;;;3.60;99.90;;;4.16;100.00;98273.63;5040557;28;20478;-77
2023/03/05 06:49:11;;;;;;;9.63;4.03;;;3.50;99.90;;;4.17;100.00;98265.72;5041426;28;20468;-76
2023/03/05 06:51:43;;;;;;;6.93;3.33;;;3.50;99.90;;;4.09;100.00;98273.38;5041217;28;21256;-75
2023/03/05 06:54:18;;;;;;;4.73;2.53;;;3.30;99.90;;;4.13;100.00;98274.69;5039988;28;20510;-76
2023/03/05 06:56:48;;;;;;;5.07;3.00;;;3.40;99.90;;;4.16;100.00;98261.50;5039710;28;20818;-76
2023/03/05 06:59:20;;;;;;;12.33;2.93;;;3.40;99.90;;;4.16;100.00;98268.47;5042097;28;20885;-76
2023/03/05 07:01:50;;;;;;;5.93;2.77;;;3.40;99.90;;;4.10;100.00;98266.41;5039637;28;20521;-75
2023/03/05 07:04:22;;;;;;;8.97;3.00;;;3.30;99.90;;;4.12;100.00;98272.28;5041060;28;20465;-75
2023/03/05 07:06:52;;;;;;;5.93;3.03;;;3.30;99.90;;;4.14;100.00;98271.16;5042788;28;20560;-75
2023/03/05 07:09:22;;;;;;;6.33;3.10;;;3.40;99.90;;;4.15;100.00;98262.47;5043995;28;20465;-75
2023/03/05 07:11:52;;;;;;;3.90;2.90;;;3.40;99.90;;;4.14;100.00;98270.34;5041565;28;20917;-76
2023/03/05 07:14:24;;;;;;;6.03;3.30;;;3.40;99.90;;;4.12;100.00;98270.50;5042076;28;20498;-75
2023/03/05 07:16:55;;;;;;;5.20;3.30;;;3.40;99.90;;;4.13;100.00;98272.13;5042256;28;20453;-72
2023/03/05 07:19:25;;;;;;;6.20;3.47;;;3.40;99.90;;;4.13;100.00;98269.53;5041997;28;20516;-75
2023/03/05 07:21:54;;;;;;;3.40;2.53;;;3.40;99.90;;;4.17;100.00;98270.88;5043459;28;20520;-75
2023/03/05 07:24:28;;;;;;;4.13;2.30;;;3.40;99.90;;;4.18;100.00;98262.19;5040199;28;20476;-75
2023/03/05 07:26:58;;;;;;;7.87;2.67;;;3.50;99.90;;;4.19;100.00;98263.81;5041035;28;20708;-76
2023/03/05 07:29:29;;;;;;;5.73;2.93;;;3.50;99.90;;;4.23;100.00;98260.00;5041200;28;20462;-76
2023/03/05 07:31:59;;;;;;;7.00;2.67;;;3.60;99.90;;;4.24;100.00;98259.00;5038420;28;20941;-75
2023/03/05 07:34:29;;;;;;;4.40;2.87;;;3.70;99.90;;;4.21;100.00;98246.38;5043011;28;20963;-75
2023/03/05 07:36:58;;;;;;;6.57;2.90;;;3.50;99.90;;;4.22;100.00;98253.19;5041382;28;20484;-75
2023/03/05 07:39:27;;;;;;;6.90;3.10;;;3.50;99.90;;;4.23;100.00;98257.41;5044359;28;20924;-75
2023/03/05 07:41:57;;;;;;;5.23;2.77;;;3.50;99.90;;;4.19;100.00;98256.06;5044584;28;20468;-76
2023/03/05 07:44:30;;;;;;;4.03;2.77;;;3.40;99.90;;;4.21;100.00;98248.13;5045127;28;21007;-76
2023/03/05 07:47:00;;;;;;;4.03;3.00;;;3.40;99.90;;;4.26;100.00;98245.94;5042560;28;20470;-76
2023/03/05 07:49:30;;;;;;;3.73;2.60;;;3.60;99.90;;;4.25;100.00;98234.78;5043359;28;20548;-76
2023/03/05 07:51:59;;;;;;;4.50;2.80;;;3.60;99.90;;;4.28;100.00;98231.06;5040339;28;20508;-76
2023/03/05 07:54:29;;;;;;;3.20;2.40;;;3.60;99.90;;;4.28;100.00;98231.91;5043362;28;20485;-75
2023/03/05 07:56:59;;;;;;;6.03;2.60;;;3.60;99.90;;;4.30;100.00;98229.19;5044165;28;20461;-77
2023/03/05 07:59:30;;;;;;;4.13;2.50;;;3.60;99.90;;;4.27;100.00;98227.66;5043996;28;20467;-75
2023/03/05 08:02:00;;;;;;;3.00;2.33;;;3.50;99.90;;;4.30;100.00;98229.19;5042343;28;21045;-75
2023/03/05 08:04:30;;;;;;;3.83;2.93;;;3.50;99.90;;;4.31;100.00;98223.84;5043002;28;20500;-75
2023/03/05 08:07:00;;;;;;;3.00;2.40;;;3.50;99.90;;;4.32;100.00;98225.47;5044004;28;20457;-76
2023/03/05 08:09:29;;;;;;;3.37;2.83;;;3.50;99.90;;;4.32;100.00;98228.06;5043797;28;20593;-75
2023/03/05 08:12:00;;;;;;;5.53;2.73;;;3.50;99.90;;;4.32;100.00;98222.88;5043061;28;20473;-75
2023/03/05 08:14:30;;;;;;;5.23;3.07;;;3.60;99.90;;;4.33;100.00;98219.34;5043856;28;20467;-75
2023/03/05 08:17:00;;;;;;;5.43;2.83;;;3.60;99.90;;;4.33;100.00;98214.19;5044715;28;20465;-75
2023/03/05 08:19:30;;;;;;;6.60;2.70;;;3.60;99.90;;;4.34;100.00;98217.59;5044303;28;20526;-74
2023/03/05 08:21:59;;;;;;;9.30;3.60;;;3.70;99.90;;;4.35;100.00;98212.25;5043177;28;20524;-72
2023/03/05 08:24:29;;;;;;;4.90;2.70;;;3.80;99.90;;;4.36;100.00;98213.88;5037885;28;20959;-74
2023/03/05 08:26:59;;;;;;;4.30;2.80;;;3.70;99.90;;;4.39;100.00;98207.59;5039864;28;20553;-74
2023/03/05 08:29:30;;;;;;;3.60;2.70;;;3.70;99.90;;;4.42;100.00;98215.88;5040370;28;20457;-74
2023/03/05 08:32:00;;;;;;;7.73;2.97;;;3.70;99.90;;;4.45;100.00;98207.00;5041454;28;20463;-74
2023/03/05 08:34:29;;;;;;;2.63;2.30;;;3.80;99.90;;;4.40;100.00;98210.06;5040530;28;20471;-74
2023/03/05 08:36:59;;;;;;;7.00;2.67;;;3.70;99.90;;;4.41;100.00;98206.47;5043458;28;20485;-74
2023/03/05 08:39:30;;;;;;;5.30;2.90;;;3.70;99.90;;;4.48;100.00;98201.53;5046692;28;20545;-75
2023/03/05 08:41:59;;;;;;;4.00;2.50;;;3.90;99.90;;;4.45;100.00;98202.66;5041652;28;20502;-75
2023/03/05 08:44:29;;;;;;;5.07;2.80;;;3.80;99.90;;;4.47;100.00;98205.13;5044885;28;21057;-75
2023/03/05 08:47:00;;;;;;;6.13;3.30;;;3.80;99.90;;;4.48;100.00;98201.53;5044602;28;20506;-75
2023/03/05 08:49:30;;;;;;;7.03;3.33;;;3.80;99.90;;;4.50;100.00;98200.47;5045218;28;20462;-75
2023/03/05 08:51:59;;;;;;;4.17;2.70;;;3.80;99.90;;;4.52;100.00;98203.72;5045144;28;20544;-75
2023/03/05 08:54:30;;;;;;;4.63;3.53;;;3.80;99.90;;;4.54;100.00;98201.00;5045225;28;20659;-75
2023/03/05 08:57:00;;;;;;;6.20;4.00;;;3.90;99.90;;;4.53;100.00;98202.75;5047802;28;20461;-74
2023/03/05 08:59:30;;;;;;;15.70;8.27;;;4.00;99.90;;;4.52;100.00;98203.72;5046062;28;20527;-73
2023/03/05 09:02:01;;;;;;;5.07;3.30;;;3.90;99.90;;;4.50;100.00;98200.47;5044006;28;21068;-75
2023/03/05 09:04:30;;;;;;;13.13;3.00;;;3.90;99.90;;;4.52;100.00;98198.53;5047324;28;20544;-75
2023/03/05 09:07:00;;;;;;;4.90;3.37;;;3.90;99.90;;;4.53;100.00;98200.16;5045054;28;20519;-75
2023/03/05 09:09:31;;;;;;;5.40;3.23;;;3.90;99.90;;;4.54;100.00;98196.63;5047637;28;20511;-75
2023/03/05 09:12:01;;;;;;;7.33;3.20;;;3.90;99.90;;;4.55;100.00;98187.06;5045363;28;20505;-75
2023/03/05 09:14:33;;;;;;;10.43;4.93;;;4.00;99.90;;;4.56;100.00;98193.88;5047126;28;20494;-75
2023/03/05 09:17:02;;;;;;;7.10;3.80;;;4.00;99.90;;;4.60;100.00;98190.03;5045119;28;21045;-73
2023/03/05 09:19:32;;;;;;;20.70;8.50;;;4.00;99.90;;;4.57;100.00;98188.56;5046349;28;20538;-74
2023/03/05 09:22:02;;;;;;;8.50;3.47;;;4.00;99.90;;;4.61;100.00;98186.50;5046743;28;20473;-75
2023/03/05 09:24:31;;;;;;;7.53;2.97;;;4.10;99.90;;;4.59;100.00;98185.81;5044481;28;20472;-72
2023/03/05 09:27:01;;;;;;;7.37;3.27;;;4.00;99.90;;;4.61;100.00;98185.69;5043137;28;20554;-75
2023/03/05 09:29:33;;;;;;;6.87;3.47;;;4.00;99.90;;;4.61;100.00;98186.50;5043864;28;20462;-75
2023/03/05 09:32:03;;;;;;;5.03;2.93;;;4.00;99.90;;;4.64;100.00;98180.19;5046733;28;20478;-75
2023/03/05 09:34:34;;;;;;;9.00;3.37;;;4.00;99.90;;;4.61;100.00;98175.31;5045180;28;20505;-75
2023/03/05 09:37:04;;;;;;;5.77;2.73;;;4.00;99.90;;;4.61;100.00;98177.91;5046787;28;21187;-75
2023/03/05 09:39:34;;;;;;;4.10;3.10;;;4.00;99.90;;;4.58;100.00;98176.44;5046783;28;20596;-75
2023/03/05 09:42:50;;;;;;;6.70;2.50;;;4.00;99.90;;;4.56;100.00;98171.38;5044494;28;20481;-75
2023/03/05 09:45:28;;;;;;;11.03;2.43;;;3.90;99.90;;;4.56;100.00;98163.63;5045903;28;20470;-75
2023/03/05 09:48:12;;;;;;;4.80;2.30;;;3.90;99.90;;;4.61;100.00;98159.78;5046236;28;20453;-75
2023/03/05 09:50:49;;;;;;;6.40;3.27;;;3.90;99.90;;;4.62;100.00;98166.59;5046666;28;20462;-75
2023/03/05 09:53:31;;;;;;;6.13;3.13;;;3.90;99.90;;;4.63;100.00;98155.25;5045605;28;20499;-75
2023/03/05 09:56:10;;;;;;;6.03;2.97;;;3.90;99.90;;;4.66;100.00;98157.56;5046909;28;20543;-75
2023/03/05 09:58:43;;;;;;;5.30;2.87;;;4.00;99.90;;;4.69;100.00;98158.06;5046693;28;20537;-75
2023/03/05 10:01:19;;;;;;;6.43;3.13;;;4.10;99.90;;;4.69;100.00;98147.72;5045792;28;20457;-75
2023/03/05 10:03:57;;;;;;;4.70;2.90;;;4.10;99.90;;;4.68;100.00;98153.06;5045371;28;20879;-75
2023/03/05 10:06:30;;;;;;;6.00;3.20;;;4.10;99.90;;;4.72;100.00;98151.81;5045646;28;20977;-75
2023/03/05 10:09:13;;;;;;;10.20;3.10;;;4.20;99.90;;;4.74;100.00;98155.06;5045902;28;20952;-75
2023/03/05 10:11:53;;;;;;;3.40;2.63;;;4.20;99.90;;;4.76;100.00;98153.13;5045918;28;20529;-75
2023/03/05 10:14:28;;;;;;;4.37;3.10;;;4.20;99.90;;;4.74;100.00;98149.88;5045366;28;20591;-75
2023/03/05 10:17:24;;;;;;;2.87;2.40;;;4.20;99.90;;;4.80;100.00;98149.28;5045941;28;20491;-75
2023/03/05 10:20:12;;;;;;;5.00;2.70;;;4.40;99.90;;;4.83;100.00;98146.38;5045710;28;20824;-75
2023/03/05 10:23:24;;;;;;;4.00;2.77;;;4.40;99.90;;;4.76;100.00;98137.56;5045209;28;20525;-75
2023/03/05 10:26:17;;;;;;;4.90;2.57;;;4.30;99.90;;;4.83;100.00;98136.03;5042016;28;20491;-75
2023/03/05 10:29:03;;;;;;;9.97;3.13;;;4.40;99.90;;;4.82;100.00;98135.22;5045806;28;20467;-75
2023/03/05 10:31:51;;;;;;;5.97;2.70;;;4.40;99.90;;;4.82;100.00;98127.47;5045896;28;20483;-75
2023/03/05 10:34:53;;;;;;;4.27;2.57;;;4.30;99.90;;;4.81;100.00;98127.59;5045116;28;20506;-75
2023/03/05 10:38:46;;;;;;;4.23;3.03;;;4.20;99.90;;;4.83;100.00;98121.28;5040839;28;20517;-75
2023/03/05 10:41:29;;;;;;;2.67;2.47;;;4.30;99.90;;;4.86;100.00;98122.78;5003486;28;20823;-75
2023/03/05 10:44:10;;;;;;;8.80;3.50;;;4.30;99.90;;;4.89;100.00;98123.31;5045080;28;20506;-75
2023/03/05 10:46:41;;;;;;;5.00;2.50;;;4.30;99.90;;;4.95;100.00;98119.28;5044852;28;20554;-75